Nordheim, Texas
Current Conditions -  °F | °C
As of 3:35 PM on Friday 19 Dec 2014 (Local Time) from KBEA Reporting Station
Overcast Overcast  
Wind Chill: 62°   Ceiling: 2100
Heat Index: 62°   Visibility: 10mi
Dew Point: 55°   Wind: 10mph
Humidity: 77%   Direction: 30°NNE
Pressure: 30.03"   Gusts: NA
Location:  28.92°N, 97.61°W
Report Text: KBEA 192135Z AUTO 03009KT 10SM OVC021 17/13 A3003 RMK AO2 P0001 T01670127
Loading
Personal Weather Stations






























Interactive Weather Map New forecast layout! Learn more

10-Day Weather Forecast

Advertisements
Track Severe Weather on mobile